sensor_id;sensor_type;location;lat;lon;timestamp;pressure;altitude;pressure_sealevel;temperature;humidity
13486;BME280;6815;59.336;17.998;2022-08-19T00:00:38;75749.97;;;-145.37;84.43
13486;BME280;6815;59.336;17.998;2022-08-19T00:03:04;75782.13;;;-145.37;86.09
13486;BME280;6815;59.336;17.998;2022-08-19T00:05:30;75794.19;;;-145.37;87.28
13486;BME280;6815;59.336;17.998;2022-08-19T00:07:56;75802.25;;;-145.37;88.63
13486;BME280;6815;59.336;17.998;2022-08-19T00:10:22;75782.13;;;-145.37;87.63
13486;BME280;6815;59.336;17.998;2022-08-19T00:12:49;75788.16;;;-145.37;88.59
13486;BME280;6815;59.336;17.998;2022-08-19T00:15:16;75790.19;;;-145.37;89.34
13486;BME280;6815;59.336;17.998;2022-08-19T00:17:43;75774.09;;;-145.37;89.29
13486;BME280;6815;59.336;17.998;2022-08-19T00:20:12;75790.19;;;-145.37;90.15
13486;BME280;6815;59.336;17.998;2022-08-19T00:22:41;75790.19;;;-145.37;90.56
13486;BME280;6815;59.336;17.998;2022-08-19T00:25:07;75784.16;;;-145.37;90.67
13486;BME280;6815;59.336;17.998;2022-08-19T00:27:33;75784.16;;;-145.37;90.70
13486;BME280;6815;59.336;17.998;2022-08-19T00:29:58;75770.06;;;-145.37;90.11
13486;BME280;6815;59.336;17.998;2022-08-19T00:32:24;75798.22;;;-145.37;92.10
13486;BME280;6815;59.336;17.998;2022-08-19T00:34:51;75796.22;;;-145.37;92.29
13486;BME280;6815;59.336;17.998;2022-08-19T00:37:18;75774.09;;;-145.37;91.74
13486;BME280;6815;59.336;17.998;2022-08-19T00:39:44;75792.19;;;-145.37;93.31
13486;BME280;6815;59.336;17.998;2022-08-19T00:42:10;75770.06;;;-145.37;92.48
13486;BME280;6815;59.336;17.998;2022-08-19T00:44:35;75770.06;;;-145.37;93.04
13486;BME280;6815;59.336;17.998;2022-08-19T00:47:01;75776.09;;;-145.37;92.87
13486;BME280;6815;59.336;17.998;2022-08-19T00:52:06;75778.13;;;-145.37;94.75
13486;BME280;6815;59.336;17.998;2022-08-19T00:54:33;75766.06;;;-145.37;94.21
13486;BME280;6815;59.336;17.998;2022-08-19T00:57:04;75745.94;;;-145.37;92.75
13486;BME280;6815;59.336;17.998;2022-08-19T00:59:34;75739.91;;;-145.37;92.85
13486;BME280;6815;59.336;17.998;2022-08-19T01:02:01;75735.91;;;-145.37;92.49
13486;BME280;6815;59.336;17.998;2022-08-19T01:04:28;75733.91;;;-145.37;92.82
13486;BME280;6815;59.336;17.998;2022-08-19T01:06:55;75741.94;;;-145.37;92.75
13486;BME280;6815;59.336;17.998;2022-08-19T01:09:21;75729.88;;;-145.37;92.08
13486;BME280;6815;59.336;17.998;2022-08-19T01:11:46;75727.88;;;-145.37;91.69
13486;BME280;6815;59.336;17.998;2022-08-19T01:14:12;75729.88;;;-145.37;91.38
13486;BME280;6815;59.336;17.998;2022-08-19T01:16:39;75731.88;;;-145.37;91.96
13486;BME280;6815;59.336;17.998;2022-08-19T01:19:15;75727.88;;;-145.37;91.88
13486;BME280;6815;59.336;17.998;2022-08-19T01:21:50;75733.91;;;-145.37;92.11
13486;BME280;6815;59.336;17.998;2022-08-19T01:24:17;75729.88;;;-145.37;92.62
13486;BME280;6815;59.336;17.998;2022-08-19T01:26:45;75721.84;;;-145.37;92.39
13486;BME280;6815;59.336;17.998;2022-08-19T01:29:11;75715.81;;;-145.37;92.53
13486;BME280;6815;59.336;17.998;2022-08-19T01:31:37;75705.75;;;-145.37;91.95
13486;BME280;6815;59.336;17.998;2022-08-19T01:34:04;75689.66;;;-145.37;90.68
13486;BME280;6815;59.336;17.998;2022-08-19T01:36:42;75687.66;;;-145.37;90.46
13486;BME280;6815;59.336;17.998;2022-08-19T01:39:15;75701.72;;;-145.37;91.12
13486;BME280;6815;59.336;17.998;2022-08-19T01:41:41;75715.81;;;-145.37;92.11
13486;BME280;6815;59.336;17.998;2022-08-19T01:44:08;75707.75;;;-145.37;92.29
13486;BME280;6815;59.336;17.998;2022-08-19T01:46:34;75693.69;;;-145.37;90.90
13486;BME280;6815;59.336;17.998;2022-08-19T01:49:00;75675.59;;;-145.37;90.16
13486;BME280;6815;59.336;17.998;2022-08-19T01:51:27;75675.59;;;-145.37;89.58
13486;BME280;6815;59.336;17.998;2022-08-19T01:53:52;75687.66;;;-145.37;90.30
13486;BME280;6815;59.336;17.998;2022-08-19T01:56:19;75703.75;;;-145.37;91.43
13486;BME280;6815;59.336;17.998;2022-08-19T01:58:49;75709.78;;;-145.37;92.36
13486;BME280;6815;59.336;17.998;2022-08-19T02:01:17;75693.69;;;-145.37;91.28
13486;BME280;6815;59.336;17.998;2022-08-19T02:03:43;75707.75;;;-145.37;91.83
13486;BME280;6815;59.336;17.998;2022-08-19T02:06:08;75703.75;;;-145.37;92.14
13486;BME280;6815;59.336;17.998;2022-08-19T02:08:37;75693.69;;;-145.37;92.19
13486;BME280;6815;59.336;17.998;2022-08-19T02:11:03;75693.69;;;-145.37;91.99
13486;BME280;6815;59.336;17.998;2022-08-19T02:13:29;75687.66;;;-145.37;91.63
13486;BME280;6815;59.336;17.998;2022-08-19T02:15:55;75675.59;;;-145.37;91.01
13486;BME280;6815;59.336;17.998;2022-08-19T02:18:20;75677.63;;;-145.37;90.90
13486;BME280;6815;59.336;17.998;2022-08-19T02:20:46;75697.72;;;-145.37;92.08
13486;BME280;6815;59.336;17.998;2022-08-19T02:23:16;75697.72;;;-145.37;92.11
13486;BME280;6815;59.336;17.998;2022-08-19T02:25:44;75709.78;;;-145.37;92.58
13486;BME280;6815;59.336;17.998;2022-08-19T02:28:10;75709.78;;;-145.37;93.02
13486;BME280;6815;59.336;17.998;2022-08-19T02:30:37;75685.66;;;-145.37;92.19
13486;BME280;6815;59.336;17.998;2022-08-19T02:33:03;75687.66;;;-145.37;91.93
13486;BME280;6815;59.336;17.998;2022-08-19T02:35:29;75689.66;;;-145.37;92.17
13486;BME280;6815;59.336;17.998;2022-08-19T02:37:56;75683.63;;;-145.37;91.79
13486;BME280;6815;59.336;17.998;2022-08-19T02:40:40;75661.53;;;-145.37;91.03
13486;BME280;6815;59.336;17.998;2022-08-19T02:43:15;75657.50;;;-145.37;90.23
13486;BME280;6815;59.336;17.998;2022-08-19T02:45:40;75659.53;;;-145.37;90.45
13486;BME280;6815;59.336;17.998;2022-08-19T02:48:06;75669.56;;;-145.37;91.04
13486;BME280;6815;59.336;17.998;2022-08-19T02:50:32;75689.66;;;-145.37;92.35
13486;BME280;6815;59.336;17.998;2022-08-19T02:52:58;75673.59;;;-145.37;91.46
13486;BME280;6815;59.336;17.998;2022-08-19T02:55:23;75675.59;;;-145.37;91.13
13486;BME280;6815;59.336;17.998;2022-08-19T02:57:49;75677.63;;;-145.37;91.46
13486;BME280;6815;59.336;17.998;2022-08-19T03:00:15;75691.69;;;-145.37;92.22
13486;BME280;6815;59.336;17.998;2022-08-19T03:02:40;75699.72;;;-145.37;92.99
13486;BME280;6815;59.336;17.998;2022-08-19T03:05:08;75701.72;;;-145.37;92.85
13486;BME280;6815;59.336;17.998;2022-08-19T03:07:35;75687.66;;;-145.37;92.17
13486;BME280;6815;59.336;17.998;2022-08-19T03:10:01;75689.66;;;-145.37;91.96
13486;BME280;6815;59.336;17.998;2022-08-19T03:12:27;75703.75;;;-145.37;93.10
13486;BME280;6815;59.336;17.998;2022-08-19T03:14:52;75705.75;;;-145.37;93.40
13486;BME280;6815;59.336;17.998;2022-08-19T03:17:18;75701.72;;;-145.37;92.85
13486;BME280;6815;59.336;17.998;2022-08-19T03:19:44;75701.72;;;-145.37;93.43
13486;BME280;6815;59.336;17.998;2022-08-19T03:22:09;75707.75;;;-145.37;93.39
13486;BME280;6815;59.336;17.998;2022-08-19T03:24:35;75705.75;;;-145.37;93.61
13486;BME280;6815;59.336;17.998;2022-08-19T03:27:00;75709.78;;;-145.37;93.98
13486;BME280;6815;59.336;17.998;2022-08-19T03:29:28;75687.66;;;-145.37;92.95
13486;BME280;6815;59.336;17.998;2022-08-19T03:31:55;75677.63;;;-145.37;91.81
13486;BME280;6815;59.336;17.998;2022-08-19T03:34:23;75683.63;;;-145.37;91.78
13486;BME280;6815;59.336;17.998;2022-08-19T03:36:52;75701.72;;;-145.37;92.91
13486;BME280;6815;59.336;17.998;2022-08-19T03:39:17;75703.75;;;-145.37;93.21
13486;BME280;6815;59.336;17.998;2022-08-19T03:41:45;75695.69;;;-145.37;92.80
13486;BME280;6815;59.336;17.998;2022-08-19T03:44:18;75693.69;;;-145.37;92.70
13486;BME280;6815;59.336;17.998;2022-08-19T03:46:46;75709.78;;;-145.37;93.76
13486;BME280;6815;59.336;17.998;2022-08-19T03:49:12;75693.69;;;-145.37;93.05
13486;BME280;6815;59.336;17.998;2022-08-19T03:51:38;75693.69;;;-145.37;92.51
13486;BME280;6815;59.336;17.998;2022-08-19T03:54:06;75683.63;;;-145.37;92.19
13486;BME280;6815;59.336;17.998;2022-08-19T03:56:37;75667.56;;;-145.37;90.96
13486;BME280;6815;59.336;17.998;2022-08-19T03:59:04;75655.50;;;-145.37;90.53
13486;BME280;6815;59.336;17.998;2022-08-19T04:01:30;75657.50;;;-145.37;90.44
13486;BME280;6815;59.336;17.998;2022-08-19T04:03:57;75673.59;;;-145.37;90.64
13486;BME280;6815;59.336;17.998;2022-08-19T04:06:26;75659.53;;;-145.37;90.31
13486;BME280;6815;59.336;17.998;2022-08-19T04:08:53;75669.56;;;-145.37;90.62
13486;BME280;6815;59.336;17.998;2022-08-19T04:11:22;75665.56;;;-145.37;90.70
13486;BME280;6815;59.336;17.998;2022-08-19T04:13:48;75705.75;;;-145.37;92.31
13486;BME280;6815;59.336;17.998;2022-08-19T04:16:14;75709.78;;;-145.37;92.68
13486;BME280;6815;59.336;17.998;2022-08-19T04:18:40;75695.69;;;-145.37;92.46
13486;BME280;6815;59.336;17.998;2022-08-19T04:21:07;75705.75;;;-145.37;92.68
13486;BME280;6815;59.336;17.998;2022-08-19T04:23:34;75713.78;;;-145.37;92.99
13486;BME280;6815;59.336;17.998;2022-08-19T04:26:01;75709.78;;;-145.37;92.39
13486;BME280;6815;59.336;17.998;2022-08-19T04:28:27;75693.69;;;-145.37;91.21
13486;BME280;6815;59.336;17.998;2022-08-19T04:30:55;75705.75;;;-145.37;91.75
13486;BME280;6815;59.336;17.998;2022-08-19T04:33:23;75695.69;;;-145.37;91.59
13486;BME280;6815;59.336;17.998;2022-08-19T04:35:50;75687.66;;;-145.37;90.90
13486;BME280;6815;59.336;17.998;2022-08-19T04:38:18;75675.59;;;-145.37;90.62
13486;BME280;6815;59.336;17.998;2022-08-19T04:40:47;75673.59;;;-145.37;89.71
13486;BME280;6815;59.336;17.998;2022-08-19T04:43:33;75683.63;;;-145.37;90.22
13486;BME280;6815;59.336;17.998;2022-08-19T04:46:05;75673.59;;;-145.37;90.04
13486;BME280;6815;59.336;17.998;2022-08-19T04:48:30;75671.59;;;-145.37;89.86
13486;BME280;6815;59.336;17.998;2022-08-19T04:50:58;75667.56;;;-145.37;89.41
13486;BME280;6815;59.336;17.998;2022-08-19T04:53:28;75659.53;;;-145.37;89.34
13486;BME280;6815;59.336;17.998;2022-08-19T04:55:58;75673.59;;;-145.37;89.65
13486;BME280;6815;59.336;17.998;2022-08-19T04:58:26;75679.63;;;-145.37;90.51
13486;BME280;6815;59.336;17.998;2022-08-19T05:00:52;75659.53;;;-145.37;89.15
13486;BME280;6815;59.336;17.998;2022-08-19T05:03:19;75649.47;;;-145.37;89.04
13486;BME280;6815;59.336;17.998;2022-08-19T05:05:47;75651.47;;;-145.37;88.92
13486;BME280;6815;59.336;17.998;2022-08-19T05:08:18;75655.50;;;-145.37;89.26
13486;BME280;6815;59.336;17.998;2022-08-19T05:10:47;75667.56;;;-145.37;89.58
13486;BME280;6815;59.336;17.998;2022-08-19T05:13:14;75679.63;;;-145.37;90.01
13486;BME280;6815;59.336;17.998;2022-08-19T05:15:40;75695.69;;;-145.37;91.18
13486;BME280;6815;59.336;17.998;2022-08-19T05:18:06;75695.69;;;-145.37;91.39
13486;BME280;6815;59.336;17.998;2022-08-19T05:20:49;75675.59;;;-145.37;90.58
13486;BME280;6815;59.336;17.998;2022-08-19T05:23:33;75669.56;;;-145.37;90.27
13486;BME280;6815;59.336;17.998;2022-08-19T05:25:59;75665.56;;;-145.37;90.39
13486;BME280;6815;59.336;17.998;2022-08-19T05:28:24;75675.59;;;-145.37;90.96
13486;BME280;6815;59.336;17.998;2022-08-19T05:30:50;75673.59;;;-145.37;90.78
13486;BME280;6815;59.336;17.998;2022-08-19T05:33:17;75667.56;;;-145.37;90.70
13486;BME280;6815;59.336;17.998;2022-08-19T05:35:42;75673.59;;;-145.37;91.24
13486;BME280;6815;59.336;17.998;2022-08-19T05:38:09;75669.56;;;-145.37;90.96
13486;BME280;6815;59.336;17.998;2022-08-19T05:40:38;75669.56;;;-145.37;91.04
13486;BME280;6815;59.336;17.998;2022-08-19T05:43:07;75633.38;;;-145.37;89.74
13486;BME280;6815;59.336;17.998;2022-08-19T05:45:38;75641.44;;;-145.37;89.52
13486;BME280;6815;59.336;17.998;2022-08-19T05:48:04;75637.41;;;-145.37;89.83
13486;BME280;6815;59.336;17.998;2022-08-19T05:50:29;75647.47;;;-145.37;89.75
13486;BME280;6815;59.336;17.998;2022-08-19T05:52:55;75633.38;;;-145.37;89.62
13486;BME280;6815;59.336;17.998;2022-08-19T05:55:21;75611.28;;;-145.37;88.63
13486;BME280;6815;59.336;17.998;2022-08-19T05:57:48;75595.19;;;-145.37;87.34
13486;BME280;6815;59.336;17.998;2022-08-19T06:00:14;75561.03;;;-145.37;85.77
13486;BME280;6815;59.336;17.998;2022-08-19T06:02:40;75508.78;;;-145.37;84.08
13486;BME280;6815;59.336;17.998;2022-08-19T06:05:06;75472.59;;;-145.37;82.20
13486;BME280;6815;59.336;17.998;2022-08-19T06:07:35;75480.63;;;-145.37;81.91
13486;BME280;6815;59.336;17.998;2022-08-19T06:10:01;75442.44;;;-145.37;79.95
13486;BME280;6815;59.336;17.998;2022-08-19T06:12:33;75402.25;;;-145.37;78.32
13486;BME280;6815;59.336;17.998;2022-08-19T06:15:04;75386.16;;;-145.37;77.96
13486;BME280;6815;59.336;17.998;2022-08-19T06:17:30;75368.09;;;-145.37;76.87
13486;BME280;6815;59.336;17.998;2022-08-19T06:19:56;75335.91;;;-145.37;75.36
13486;BME280;6815;59.336;17.998;2022-08-19T06:22:22;75305.78;;;-145.37;74.93
13486;BME280;6815;59.336;17.998;2022-08-19T06:24:48;75295.72;;;-145.37;73.68
13486;BME280;6815;59.336;17.998;2022-08-19T06:27:18;75279.66;;;-145.37;72.76
13486;BME280;6815;59.336;17.998;2022-08-19T06:29:45;75259.56;;;-145.37;71.81
13486;BME280;6815;59.336;17.998;2022-08-19T06:32:15;75245.47;;;-145.37;71.02
13486;BME280;6815;59.336;17.998;2022-08-19T06:34:41;75223.38;;;-145.37;69.71
13486;BME280;6815;59.336;17.998;2022-08-19T06:37:07;75249.50;;;-145.37;70.06
13486;BME280;6815;59.336;17.998;2022-08-19T06:39:38;75237.44;;;-145.37;68.76
13486;BME280;6815;59.336;17.998;2022-08-19T06:42:05;75185.19;;;-145.37;66.96
13486;BME280;6815;59.336;17.998;2022-08-19T06:44:34;75199.25;;;-145.37;67.09
13486;BME280;6815;59.336;17.998;2022-08-19T06:47:03;75191.22;;;-145.37;67.13
13486;BME280;6815;59.336;17.998;2022-08-19T06:49:28;75205.28;;;-145.37;66.72
13486;BME280;6815;59.336;17.998;2022-08-19T06:51:57;75219.34;;;-145.37;66.70
13486;BME280;6815;59.336;17.998;2022-08-19T06:54:23;75183.19;;;-145.37;66.49
13486;BME280;6815;59.336;17.998;2022-08-19T06:56:49;75169.09;;;-145.37;65.97
13486;BME280;6815;59.336;17.998;2022-08-19T06:59:20;75183.19;;;-145.37;65.99
13486;BME280;6815;59.336;17.998;2022-08-19T07:01:52;75191.22;;;-145.37;65.86
13486;BME280;6815;59.336;17.998;2022-08-19T07:04:21;75197.25;;;-145.37;66.39
13486;BME280;6815;59.336;17.998;2022-08-19T07:06:48;75163.09;;;-145.37;65.12
13486;BME280;6815;59.336;17.998;2022-08-19T07:09:15;75149.00;;;-145.37;64.92
13486;BME280;6815;59.336;17.998;2022-08-19T07:11:47;75132.94;;;-145.37;64.40
13486;BME280;6815;59.336;17.998;2022-08-19T07:14:15;75126.91;;;-145.37;63.97
13486;BME280;6815;59.336;17.998;2022-08-19T07:16:44;75094.75;;;-145.37;63.55
13486;BME280;6815;59.336;17.998;2022-08-19T07:19:11;75104.81;;;-145.37;63.83
13486;BME280;6815;59.336;17.998;2022-08-19T07:21:37;75120.88;;;-145.37;63.35
13486;BME280;6815;59.336;17.998;2022-08-19T07:24:03;75124.91;;;-145.37;63.65
13486;BME280;6815;59.336;17.998;2022-08-19T07:26:33;75084.72;;;-145.37;62.57
13486;BME280;6815;59.336;17.998;2022-08-19T07:29:04;75112.84;;;-145.37;63.39
13486;BME280;6815;59.336;17.998;2022-08-19T07:31:30;75084.72;;;-145.37;62.79
13486;BME280;6815;59.336;17.998;2022-08-19T07:33:56;75090.72;;;-145.37;62.87
13486;BME280;6815;59.336;17.998;2022-08-19T07:36:24;75086.72;;;-145.37;62.51
13486;BME280;6815;59.336;17.998;2022-08-19T07:38:51;75066.63;;;-145.37;61.75
13486;BME280;6815;59.336;17.998;2022-08-19T07:41:23;75064.59;;;-145.37;60.92
13486;BME280;6815;59.336;17.998;2022-08-19T07:43:50;75046.53;;;-145.37;61.32
13486;BME280;6815;59.336;17.998;2022-08-19T07:46:17;75030.44;;;-145.37;59.97
13486;BME280;6815;59.336;17.998;2022-08-19T07:48:44;75030.44;;;-145.37;60.54
13486;BME280;6815;59.336;17.998;2022-08-19T07:51:14;75022.41;;;-145.37;59.97
13486;BME280;6815;59.336;17.998;2022-08-19T07:53:41;75026.44;;;-145.37;60.21
13486;BME280;6815;59.336;17.998;2022-08-19T07:56:07;75026.44;;;-145.37;59.82
13486;BME280;6815;59.336;17.998;2022-08-19T07:58:35;75008.34;;;-145.37;59.70
13486;BME280;6815;59.336;17.998;2022-08-19T08:01:04;75008.34;;;-145.37;59.79
13486;BME280;6815;59.336;17.998;2022-08-19T08:03:30;75030.44;;;-145.37;58.90
13486;BME280;6815;59.336;17.998;2022-08-19T08:06:15;75012.34;;;-145.37;58.81
13486;BME280;6815;59.336;17.998;2022-08-19T08:09:00;75022.41;;;-145.37;60.02
13486;BME280;6815;59.336;17.998;2022-08-19T08:11:56;75002.31;;;-145.37;58.88
13486;BME280;6815;59.336;17.998;2022-08-19T08:14:29;75018.38;;;-145.37;58.94
13486;BME280;6815;59.336;17.998;2022-08-19T08:16:56;75026.44;;;-145.37;59.39
13486;BME280;6815;59.336;17.998;2022-08-19T08:19:23;75022.41;;;-145.37;59.46
13486;BME280;6815;59.336;17.998;2022-08-19T08:21:50;75010.34;;;-145.37;59.29
13486;BME280;6815;59.336;17.998;2022-08-19T08:24:16;75030.44;;;-145.37;58.98
13486;BME280;6815;59.336;17.998;2022-08-19T08:26:42;75026.44;;;-145.37;58.93
13486;BME280;6815;59.336;17.998;2022-08-19T08:29:11;75008.34;;;-145.37;58.80
13486;BME280;6815;59.336;17.998;2022-08-19T08:31:41;75006.31;;;-145.37;58.63
13486;BME280;6815;59.336;17.998;2022-08-19T08:34:08;75008.34;;;-145.37;58.47
13486;BME280;6815;59.336;17.998;2022-08-19T08:36:37;75016.38;;;-145.37;57.99
13486;BME280;6815;59.336;17.998;2022-08-19T08:39:06;75028.44;;;-145.37;58.32
13486;BME280;6815;59.336;17.998;2022-08-19T08:44:27;75022.41;;;-145.37;57.91
13486;BME280;6815;59.336;17.998;2022-08-19T08:47:03;75014.38;;;-145.37;57.27
13486;BME280;6815;59.336;17.998;2022-08-19T08:50:19;75022.41;;;-145.37;57.02
13486;BME280;6815;59.336;17.998;2022-08-19T08:52:43;75032.44;;;-145.37;57.27
13486;BME280;6815;59.336;17.998;2022-08-19T08:55:39;75036.47;;;-145.37;56.47
13486;BME280;6815;59.336;17.998;2022-08-19T08:58:11;75034.47;;;-145.37;56.28
13486;BME280;6815;59.336;17.998;2022-08-19T09:00:47;75036.47;;;-145.37;56.21
13486;BME280;6815;59.336;17.998;2022-08-19T09:03:21;75024.41;;;-145.37;56.16
13486;BME280;6815;59.336;17.998;2022-08-19T09:08:36;75016.38;;;-145.37;55.70
13486;BME280;6815;59.336;17.998;2022-08-19T09:11:08;75026.44;;;-145.37;55.45
13486;BME280;6815;59.336;17.998;2022-08-19T09:13:51;75026.44;;;-145.37;55.38
13486;BME280;6815;59.336;17.998;2022-08-19T09:16:21;75006.31;;;-145.37;55.02
13486;BME280;6815;59.336;17.998;2022-08-19T09:19:01;75000.31;;;-145.37;55.30
13486;BME280;6815;59.336;17.998;2022-08-19T09:21:27;75002.31;;;-145.37;55.05
13486;BME280;6815;59.336;17.998;2022-08-19T09:23:53;75008.34;;;-145.37;54.69
13486;BME280;6815;59.336;17.998;2022-08-19T09:26:21;74994.28;;;-145.37;54.56
13486;BME280;6815;59.336;17.998;2022-08-19T09:28:49;74972.16;;;-145.37;53.88
13486;BME280;6815;59.336;17.998;2022-08-19T09:31:26;74976.19;;;-145.37;53.73
13486;BME280;6815;59.336;17.998;2022-08-19T09:33:53;74986.22;;;-145.37;53.61
13486;BME280;6815;59.336;17.998;2022-08-19T09:36:23;75000.31;;;-145.37;54.04
13486;BME280;6815;59.336;17.998;2022-08-19T09:38:50;74984.22;;;-145.37;53.51
13486;BME280;6815;59.336;17.998;2022-08-19T09:41:19;74964.13;;;-145.37;53.40
13486;BME280;6815;59.336;17.998;2022-08-19T09:43:47;74972.16;;;-145.37;53.50
13486;BME280;6815;59.336;17.998;2022-08-19T09:46:13;74964.13;;;-145.37;52.79
13486;BME280;6815;59.336;17.998;2022-08-19T09:48:40;74970.16;;;-145.37;53.13
13486;BME280;6815;59.336;17.998;2022-08-19T09:51:11;74938.00;;;-145.37;52.70
13486;BME280;6815;59.336;17.998;2022-08-19T09:53:41;74948.03;;;-145.37;52.48
13486;BME280;6815;59.336;17.998;2022-08-19T09:56:07;74940.00;;;-145.37;52.28
13486;BME280;6815;59.336;17.998;2022-08-19T09:58:33;74933.97;;;-145.37;51.31
13486;BME280;6815;59.336;17.998;2022-08-19T10:01:00;74938.00;;;-145.37;52.02
13486;BME280;6815;59.336;17.998;2022-08-19T10:03:27;74931.97;;;-145.37;52.18
13486;BME280;6815;59.336;17.998;2022-08-19T10:05:53;74927.94;;;-145.37;51.92
13486;BME280;6815;59.336;17.998;2022-08-19T10:08:23;74923.94;;;-145.37;51.87
13486;BME280;6815;59.336;17.998;2022-08-19T10:10:51;74909.88;;;-145.37;51.73
13486;BME280;6815;59.336;17.998;2022-08-19T10:13:23;74909.88;;;-145.37;51.98
13486;BME280;6815;59.336;17.998;2022-08-19T10:15:51;74889.78;;;-145.37;51.45
13486;BME280;6815;59.336;17.998;2022-08-19T10:18:19;74867.66;;;-145.37;50.94
13486;BME280;6815;59.336;17.998;2022-08-19T10:20:46;74865.66;;;-145.37;50.53
13486;BME280;6815;59.336;17.998;2022-08-19T10:23:12;74887.75;;;-145.37;50.58
13486;BME280;6815;59.336;17.998;2022-08-19T10:25:38;74885.75;;;-145.37;50.75
13486;BME280;6815;59.336;17.998;2022-08-19T10:28:04;74867.66;;;-145.37;50.03
13486;BME280;6815;59.336;17.998;2022-08-19T10:30:32;74861.63;;;-145.37;49.24
13486;BME280;6815;59.336;17.998;2022-08-19T10:32:58;74845.56;;;-145.37;49.23
13486;BME280;6815;59.336;17.998;2022-08-19T10:35:24;74837.53;;;-145.37;49.22
13486;BME280;6815;59.336;17.998;2022-08-19T10:37:54;74827.47;;;-145.37;48.32
13486;BME280;6815;59.336;17.998;2022-08-19T10:40:26;74827.47;;;-145.37;49.06
13486;BME280;6815;59.336;17.998;2022-08-19T10:42:52;74829.47;;;-145.37;48.89
13486;BME280;6815;59.336;17.998;2022-08-19T10:45:18;74831.50;;;-145.37;49.07
13486;BME280;6815;59.336;17.998;2022-08-19T10:47:43;74819.44;;;-145.37;47.70
13486;BME280;6815;59.336;17.998;2022-08-19T10:50:09;74773.22;;;-145.37;46.68
13486;BME280;6815;59.336;17.998;2022-08-19T10:52:53;74757.13;;;-145.37;46.75
13486;BME280;6815;59.336;17.998;2022-08-19T10:55:21;74773.22;;;-145.37;46.19
13486;BME280;6815;59.336;17.998;2022-08-19T10:58:20;74809.38;;;-145.37;46.90
13486;BME280;6815;59.336;17.998;2022-08-19T11:00:56;74785.28;;;-145.37;46.20
13486;BME280;6815;59.336;17.998;2022-08-19T11:03:22;74747.09;;;-145.37;44.87
13486;BME280;6815;59.336;17.998;2022-08-19T11:06:03;74743.06;;;-145.37;44.03
13486;BME280;6815;59.336;17.998;2022-08-19T11:08:29;74751.13;;;-145.37;44.60
13486;BME280;6815;59.336;17.998;2022-08-19T11:10:59;74749.09;;;-145.37;44.35
13486;BME280;6815;59.336;17.998;2022-08-19T11:13:31;74745.09;;;-145.37;43.98
13486;BME280;6815;59.336;17.998;2022-08-19T11:16:00;74716.94;;;-145.37;42.70
13486;BME280;6815;59.336;17.998;2022-08-19T11:18:26;74682.78;;;-145.37;41.30
13486;BME280;6815;59.336;17.998;2022-08-19T11:20:51;74700.88;;;-145.37;41.18
13486;BME280;6815;59.336;17.998;2022-08-19T11:23:17;74674.75;;;-145.37;40.27
13486;BME280;6815;59.336;17.998;2022-08-19T11:25:43;74680.78;;;-145.37;40.61
13486;BME280;6815;59.336;17.998;2022-08-19T11:28:11;74664.72;;;-145.37;40.52
13486;BME280;6815;59.336;17.998;2022-08-19T11:30:37;74656.66;;;-145.37;39.90
13486;BME280;6815;59.336;17.998;2022-08-19T11:33:03;74666.72;;;-145.37;39.47
13486;BME280;6815;59.336;17.998;2022-08-19T11:35:28;74690.81;;;-145.37;39.91
13486;BME280;6815;59.336;17.998;2022-08-19T11:37:53;74656.66;;;-145.37;39.74
13486;BME280;6815;59.336;17.998;2022-08-19T11:40:19;74660.69;;;-145.37;39.47
13486;BME280;6815;59.336;17.998;2022-08-19T11:42:44;74646.63;;;-145.37;39.55
13486;BME280;6815;59.336;17.998;2022-08-19T11:45:23;74626.53;;;-145.37;38.92
13486;BME280;6815;59.336;17.998;2022-08-19T11:47:49;74670.72;;;-145.37;39.82
13486;BME280;6815;59.336;17.998;2022-08-19T11:50:15;74642.59;;;-145.37;39.00
13486;BME280;6815;59.336;17.998;2022-08-19T11:52:41;74656.66;;;-145.37;39.31
13486;BME280;6815;59.336;17.998;2022-08-19T11:55:08;74644.63;;;-145.37;39.16
13486;BME280;6815;59.336;17.998;2022-08-19T11:57:33;74644.63;;;-145.37;38.58
13486;BME280;6815;59.336;17.998;2022-08-19T11:59:59;74642.59;;;-145.37;38.92
13486;BME280;6815;59.336;17.998;2022-08-19T12:02:24;74628.53;;;-145.37;38.58
13486;BME280;6815;59.336;17.998;2022-08-19T12:04:50;74652.66;;;-145.37;38.96
13486;BME280;6815;59.336;17.998;2022-08-19T12:07:16;74646.63;;;-145.37;39.02
13486;BME280;6815;59.336;17.998;2022-08-19T12:09:41;74616.47;;;-145.37;38.18
13486;BME280;6815;59.336;17.998;2022-08-19T12:12:08;74606.44;;;-145.37;37.95
13486;BME280;6815;59.336;17.998;2022-08-19T12:14:34;74630.53;;;-145.37;38.38
13486;BME280;6815;59.336;17.998;2022-08-19T12:16:59;74620.50;;;-145.37;38.41
13486;BME280;6815;59.336;17.998;2022-08-19T12:19:25;74602.41;;;-145.37;37.88
13486;BME280;6815;59.336;17.998;2022-08-19T12:21:51;74622.50;;;-145.37;38.13
13486;BME280;6815;59.336;17.998;2022-08-19T12:24:18;74618.50;;;-145.37;38.02
13486;BME280;6815;59.336;17.998;2022-08-19T12:26:48;74624.50;;;-145.37;38.39
13486;BME280;6815;59.336;17.998;2022-08-19T12:29:14;74616.47;;;-145.37;37.79
13486;BME280;6815;59.336;17.998;2022-08-19T12:31:40;74620.50;;;-145.37;38.18
13486;BME280;6815;59.336;17.998;2022-08-19T12:34:05;74624.50;;;-145.37;38.12
13486;BME280;6815;59.336;17.998;2022-08-19T12:36:31;74628.53;;;-145.37;38.54
13486;BME280;6815;59.336;17.998;2022-08-19T12:38:58;74606.44;;;-145.37;37.33
13486;BME280;6815;59.336;17.998;2022-08-19T12:41:24;74596.38;;;-145.37;37.47
13486;BME280;6815;59.336;17.998;2022-08-19T12:43:50;74608.44;;;-145.37;37.32
13486;BME280;6815;59.336;17.998;2022-08-19T12:46:16;74608.44;;;-145.37;37.25
13486;BME280;6815;59.336;17.998;2022-08-19T12:48:41;74596.38;;;-145.37;37.20
13486;BME280;6815;59.336;17.998;2022-08-19T12:51:14;74586.34;;;-145.37;37.36
13486;BME280;6815;59.336;17.998;2022-08-19T12:53:40;74592.38;;;-145.37;37.60